sensor_id;sensor_type;location;lat;lon;timestamp;temperature;humidity
49385;DHT22;36795;45.028;38.968;2024-03-17T00:01:21;11.20;71.60
49385;DHT22;36795;45.028;38.968;2024-03-17T00:04:07;11.10;72.00
49385;DHT22;36795;45.028;38.968;2024-03-17T00:06:53;11.10;72.30
49385;DHT22;36795;45.028;38.968;2024-03-17T00:09:41;11.10;72.70
49385;DHT22;36795;45.028;38.968;2024-03-17T00:12:27;11.10;73.20
49385;DHT22;36795;45.028;38.968;2024-03-17T00:15:13;11.00;73.30
49385;DHT22;36795;45.028;38.968;2024-03-17T00:18:00;11.00;74.20
49385;DHT22;36795;45.028;38.968;2024-03-17T00:20:46;10.90;73.70
49385;DHT22;36795;45.028;38.968;2024-03-17T00:23:32;10.90;74.00
49385;DHT22;36795;45.028;38.968;2024-03-17T00:26:18;10.80;74.00
49385;DHT22;36795;45.028;38.968;2024-03-17T00:29:06;10.70;74.40
49385;DHT22;36795;45.028;38.968;2024-03-17T00:31:53;10.70;74.60
49385;DHT22;36795;45.028;38.968;2024-03-17T00:34:39;10.70;74.70
49385;DHT22;36795;45.028;38.968;2024-03-17T00:37:25;10.70;74.70
49385;DHT22;36795;45.028;38.968;2024-03-17T00:40:11;10.60;74.60
49385;DHT22;36795;45.028;38.968;2024-03-17T00:42:57;10.60;74.90
49385;DHT22;36795;45.028;38.968;2024-03-17T00:45:43;10.50;75.00
49385;DHT22;36795;45.028;38.968;2024-03-17T00:48:29;10.50;75.10
49385;DHT22;36795;45.028;38.968;2024-03-17T00:51:15;10.50;75.30
49385;DHT22;36795;45.028;38.968;2024-03-17T00:54:02;10.50;75.40
49385;DHT22;36795;45.028;38.968;2024-03-17T00:56:48;10.50;75.60
49385;DHT22;36795;45.028;38.968;2024-03-17T00:59:34;10.40;75.70
49385;DHT22;36795;45.028;38.968;2024-03-17T01:02:20;10.40;75.90
49385;DHT22;36795;45.028;38.968;2024-03-17T01:05:07;10.50;76.00
49385;DHT22;36795;45.028;38.968;2024-03-17T01:07:54;10.50;75.90
49385;DHT22;36795;45.028;38.968;2024-03-17T01:10:41;10.50;75.90
49385;DHT22;36795;45.028;38.968;2024-03-17T01:13:26;10.50;75.90
49385;DHT22;36795;45.028;38.968;2024-03-17T01:16:16;10.50;76.00
49385;DHT22;36795;45.028;38.968;2024-03-17T01:19:02;10.50;76.10
49385;DHT22;36795;45.028;38.968;2024-03-17T01:21:48;10.40;76.20
49385;DHT22;36795;45.028;38.968;2024-03-17T01:24:34;10.40;76.30
49385;DHT22;36795;45.028;38.968;2024-03-17T01:27:21;10.40;76.60
49385;DHT22;36795;45.028;38.968;2024-03-17T01:30:07;10.30;76.80
49385;DHT22;36795;45.028;38.968;2024-03-17T01:32:53;10.30;76.80
49385;DHT22;36795;45.028;38.968;2024-03-17T01:35:39;10.30;76.90
49385;DHT22;36795;45.028;38.968;2024-03-17T01:38:26;10.30;76.80
49385;DHT22;36795;45.028;38.968;2024-03-17T01:41:12;10.40;76.90
49385;DHT22;36795;45.028;38.968;2024-03-17T01:43:59;10.30;76.80
49385;DHT22;36795;45.028;38.968;2024-03-17T01:46:45;10.30;76.90
49385;DHT22;36795;45.028;38.968;2024-03-17T01:49:32;10.40;76.90
49385;DHT22;36795;45.028;38.968;2024-03-17T01:52:19;10.40;76.80
49385;DHT22;36795;45.028;38.968;2024-03-17T01:55:06;10.40;76.70
49385;DHT22;36795;45.028;38.968;2024-03-17T01:57:53;10.50;76.60
49385;DHT22;36795;45.028;38.968;2024-03-17T02:00:40;10.50;76.60
49385;DHT22;36795;45.028;38.968;2024-03-17T02:03:26;10.40;76.60
49385;DHT22;36795;45.028;38.968;2024-03-17T02:06:12;10.40;76.60
49385;DHT22;36795;45.028;38.968;2024-03-17T02:09:00;10.50;76.60
49385;DHT22;36795;45.028;38.968;2024-03-17T02:11:45;10.50;76.50
49385;DHT22;36795;45.028;38.968;2024-03-17T02:14:33;10.40;76.30
49385;DHT22;36795;45.028;38.968;2024-03-17T02:17:19;10.40;76.50
49385;DHT22;36795;45.028;38.968;2024-03-17T02:20:06;10.30;76.70
49385;DHT22;36795;45.028;38.968;2024-03-17T02:22:56;10.30;77.00
49385;DHT22;36795;45.028;38.968;2024-03-17T02:25:42;10.20;77.10
49385;DHT22;36795;45.028;38.968;2024-03-17T02:28:39;10.20;77.20
49385;DHT22;36795;45.028;38.968;2024-03-17T02:31:25;10.20;77.40
49385;DHT22;36795;45.028;38.968;2024-03-17T02:34:11;10.10;77.40
49385;DHT22;36795;45.028;38.968;2024-03-17T02:36:57;10.20;77.50
49385;DHT22;36795;45.028;38.968;2024-03-17T02:39:43;10.20;77.60
49385;DHT22;36795;45.028;38.968;2024-03-17T02:42:29;10.10;77.80
49385;DHT22;36795;45.028;38.968;2024-03-17T02:45:14;10.00;78.00
49385;DHT22;36795;45.028;38.968;2024-03-17T02:48:01;9.90;78.20
49385;DHT22;36795;45.028;38.968;2024-03-17T02:50:47;9.80;78.30
49385;DHT22;36795;45.028;38.968;2024-03-17T02:53:33;9.70;78.50
49385;DHT22;36795;45.028;38.968;2024-03-17T02:56:19;9.70;78.90
49385;DHT22;36795;45.028;38.968;2024-03-17T02:59:06;9.60;79.10
49385;DHT22;36795;45.028;38.968;2024-03-17T03:01:52;9.60;79.40
49385;DHT22;36795;45.028;38.968;2024-03-17T03:04:38;9.60;79.50
49385;DHT22;36795;45.028;38.968;2024-03-17T03:07:25;9.70;79.50
49385;DHT22;36795;45.028;38.968;2024-03-17T03:10:11;9.60;79.40
49385;DHT22;36795;45.028;38.968;2024-03-17T03:12:57;9.60;79.50
49385;DHT22;36795;45.028;38.968;2024-03-17T03:15:43;9.60;79.60
49385;DHT22;36795;45.028;38.968;2024-03-17T03:18:29;9.60;79.80
49385;DHT22;36795;45.028;38.968;2024-03-17T03:21:15;9.60;79.90
49385;DHT22;36795;45.028;38.968;2024-03-17T03:24:01;9.60;80.00
49385;DHT22;36795;45.028;38.968;2024-03-17T03:26:48;9.60;80.10
49385;DHT22;36795;45.028;38.968;2024-03-17T03:29:36;9.60;80.20
49385;DHT22;36795;45.028;38.968;2024-03-17T03:32:24;9.60;80.40
49385;DHT22;36795;45.028;38.968;2024-03-17T03:35:09;9.60;80.60
49385;DHT22;36795;45.028;38.968;2024-03-17T03:37:57;9.60;80.70
49385;DHT22;36795;45.028;38.968;2024-03-17T03:40:43;9.50;80.70
49385;DHT22;36795;45.028;38.968;2024-03-17T03:43:29;9.50;80.90
49385;DHT22;36795;45.028;38.968;2024-03-17T03:46:17;9.50;81.00
49385;DHT22;36795;45.028;38.968;2024-03-17T03:49:03;9.40;81.10
49385;DHT22;36795;45.028;38.968;2024-03-17T03:51:49;9.40;81.30
49385;DHT22;36795;45.028;38.968;2024-03-17T03:54:35;9.50;81.40
49385;DHT22;36795;45.028;38.968;2024-03-17T03:57:21;9.50;81.30
49385;DHT22;36795;45.028;38.968;2024-03-17T04:00:08;9.50;81.30
49385;DHT22;36795;45.028;38.968;2024-03-17T04:03:07;9.60;81.20
49385;DHT22;36795;45.028;38.968;2024-03-17T04:06:04;9.50;81.20
49385;DHT22;36795;45.028;38.968;2024-03-17T04:08:51;9.60;81.30
49385;DHT22;36795;45.028;38.968;2024-03-17T04:11:36;9.60;81.70
49385;DHT22;36795;45.028;38.968;2024-03-17T04:14:22;9.60;80.80
49385;DHT22;36795;45.028;38.968;2024-03-17T04:17:09;9.60;80.80
49385;DHT22;36795;45.028;38.968;2024-03-17T04:19:56;9.70;80.90
49385;DHT22;36795;45.028;38.968;2024-03-17T04:22:42;9.60;80.80
49385;DHT22;36795;45.028;38.968;2024-03-17T04:25:31;9.60;80.80
49385;DHT22;36795;45.028;38.968;2024-03-17T04:28:18;9.60;81.00
49385;DHT22;36795;45.028;38.968;2024-03-17T04:31:05;9.60;81.10
49385;DHT22;36795;45.028;38.968;2024-03-17T04:33:51;9.60;81.10
49385;DHT22;36795;45.028;38.968;2024-03-17T04:36:37;9.60;81.00
49385;DHT22;36795;45.028;38.968;2024-03-17T04:39:23;9.70;81.00
49385;DHT22;36795;45.028;38.968;2024-03-17T04:42:10;9.80;80.80
49385;DHT22;36795;45.028;38.968;2024-03-17T04:44:56;9.90;80.50
49385;DHT22;36795;45.028;38.968;2024-03-17T04:47:43;9.90;80.20
49385;DHT22;36795;45.028;38.968;2024-03-17T04:50:29;9.90;80.20
49385;DHT22;36795;45.028;38.968;2024-03-17T04:53:17;9.90;80.10
49385;DHT22;36795;45.028;38.968;2024-03-17T04:56:04;10.00;79.90
49385;DHT22;36795;45.028;38.968;2024-03-17T04:58:51;9.90;79.70
49385;DHT22;36795;45.028;38.968;2024-03-17T05:01:37;10.00;79.80
49385;DHT22;36795;45.028;38.968;2024-03-17T05:04:23;10.00;79.70
49385;DHT22;36795;45.028;38.968;2024-03-17T05:07:09;10.00;79.60
49385;DHT22;36795;45.028;38.968;2024-03-17T05:09:55;10.00;79.30
49385;DHT22;36795;45.028;38.968;2024-03-17T05:12:41;9.90;79.20
49385;DHT22;36795;45.028;38.968;2024-03-17T05:15:27;9.90;79.50
49385;DHT22;36795;45.028;38.968;2024-03-17T05:18:14;10.00;79.20
49385;DHT22;36795;45.028;38.968;2024-03-17T05:21:02;9.90;79.60
49385;DHT22;36795;45.028;38.968;2024-03-17T05:23:49;9.90;79.10
49385;DHT22;36795;45.028;38.968;2024-03-17T05:26:35;10.00;79.10
49385;DHT22;36795;45.028;38.968;2024-03-17T05:29:21;10.00;78.90
49385;DHT22;36795;45.028;38.968;2024-03-17T05:32:08;10.00;78.70
49385;DHT22;36795;45.028;38.968;2024-03-17T05:34:54;10.00;78.60
49385;DHT22;36795;45.028;38.968;2024-03-17T05:37:41;10.10;78.40
49385;DHT22;36795;45.028;38.968;2024-03-17T05:40:26;10.10;78.30
49385;DHT22;36795;45.028;38.968;2024-03-17T05:43:13;10.00;78.10
49385;DHT22;36795;45.028;38.968;2024-03-17T05:46:00;10.00;78.20
49385;DHT22;36795;45.028;38.968;2024-03-17T05:48:46;10.00;78.30
49385;DHT22;36795;45.028;38.968;2024-03-17T05:51:33;10.00;78.20
49385;DHT22;36795;45.028;38.968;2024-03-17T05:54:19;9.90;78.40
49385;DHT22;36795;45.028;38.968;2024-03-17T05:57:05;9.90;78.50
49385;DHT22;36795;45.028;38.968;2024-03-17T05:59:51;10.00;78.50
49385;DHT22;36795;45.028;38.968;2024-03-17T06:02:37;10.10;78.30
49385;DHT22;36795;45.028;38.968;2024-03-17T06:05:23;10.10;78.20
49385;DHT22;36795;45.028;38.968;2024-03-17T06:08:09;10.20;78.00
49385;DHT22;36795;45.028;38.968;2024-03-17T06:10:57;10.30;77.80
49385;DHT22;36795;45.028;38.968;2024-03-17T06:13:45;10.30;77.70
49385;DHT22;36795;45.028;38.968;2024-03-17T06:16:31;10.30;78.10
49385;DHT22;36795;45.028;38.968;2024-03-17T06:19:17;10.40;77.60
49385;DHT22;36795;45.028;38.968;2024-03-17T06:22:03;10.40;77.90
49385;DHT22;36795;45.028;38.968;2024-03-17T06:24:50;10.50;77.30
49385;DHT22;36795;45.028;38.968;2024-03-17T06:27:36;10.70;77.10
49385;DHT22;36795;45.028;38.968;2024-03-17T06:30:22;10.70;76.50
49385;DHT22;36795;45.028;38.968;2024-03-17T06:33:13;10.80;76.50
49385;DHT22;36795;45.028;38.968;2024-03-17T06:36:05;10.70;76.30
49385;DHT22;36795;45.028;38.968;2024-03-17T06:38:51;10.70;76.40
49385;DHT22;36795;45.028;38.968;2024-03-17T06:41:37;10.80;76.30
49385;DHT22;36795;45.028;38.968;2024-03-17T06:44:23;10.90;76.00
49385;DHT22;36795;45.028;38.968;2024-03-17T06:47:13;10.80;75.70
49385;DHT22;36795;45.028;38.968;2024-03-17T06:49:59;10.80;75.80
49385;DHT22;36795;45.028;38.968;2024-03-17T06:52:45;10.90;75.70
49385;DHT22;36795;45.028;38.968;2024-03-17T06:55:31;11.00;75.60
49385;DHT22;36795;45.028;38.968;2024-03-17T06:58:18;11.10;75.50
49385;DHT22;36795;45.028;38.968;2024-03-17T07:01:08;11.10;75.20
49385;DHT22;36795;45.028;38.968;2024-03-17T07:03:54;11.20;75.10
49385;DHT22;36795;45.028;38.968;2024-03-17T07:06:41;11.10;74.90
49385;DHT22;36795;45.028;38.968;2024-03-17T07:09:26;11.30;74.90
49385;DHT22;36795;45.028;38.968;2024-03-17T07:12:12;11.40;74.60
49385;DHT22;36795;45.028;38.968;2024-03-17T07:14:58;11.50;74.30
49385;DHT22;36795;45.028;38.968;2024-03-17T07:17:44;11.60;73.90
49385;DHT22;36795;45.028;38.968;2024-03-17T07:20:33;11.50;73.40
49385;DHT22;36795;45.028;38.968;2024-03-17T07:23:19;11.50;73.50
49385;DHT22;36795;45.028;38.968;2024-03-17T07:26:05;11.50;73.60
49385;DHT22;36795;45.028;38.968;2024-03-17T07:28:51;11.50;73.60
49385;DHT22;36795;45.028;38.968;2024-03-17T07:31:37;11.40;73.60
49385;DHT22;36795;45.028;38.968;2024-03-17T07:34:23;11.40;73.80
49385;DHT22;36795;45.028;38.968;2024-03-17T07:37:09;11.40;74.00
49385;DHT22;36795;45.028;38.968;2024-03-17T07:39:56;11.60;73.80
49385;DHT22;36795;45.028;38.968;2024-03-17T07:42:41;11.80;73.30
49385;DHT22;36795;45.028;38.968;2024-03-17T07:45:28;11.90;73.00
49385;DHT22;36795;45.028;38.968;2024-03-17T07:48:14;12.00;72.50
49385;DHT22;36795;45.028;38.968;2024-03-17T07:51:06;12.00;72.00
49385;DHT22;36795;45.028;38.968;2024-03-17T07:53:52;12.10;72.10
49385;DHT22;36795;45.028;38.968;2024-03-17T07:56:38;12.10;71.90
49385;DHT22;36795;45.028;38.968;2024-03-17T07:59:24;12.00;71.70
49385;DHT22;36795;45.028;38.968;2024-03-17T08:02:10;11.90;72.10
49385;DHT22;36795;45.028;38.968;2024-03-17T08:04:56;12.00;72.10
49385;DHT22;36795;45.028;38.968;2024-03-17T08:07:42;12.10;71.80
49385;DHT22;36795;45.028;38.968;2024-03-17T08:10:28;12.40;71.30
49385;DHT22;36795;45.028;38.968;2024-03-17T08:13:15;12.70;70.30
49385;DHT22;36795;45.028;38.968;2024-03-17T08:16:03;13.00;69.60
49385;DHT22;36795;45.028;38.968;2024-03-17T08:18:51;13.30;68.70
49385;DHT22;36795;45.028;38.968;2024-03-17T08:21:37;13.50;68.10
49385;DHT22;36795;45.028;38.968;2024-03-17T08:24:23;13.50;67.00
49385;DHT22;36795;45.028;38.968;2024-03-17T08:27:09;13.40;66.80
49385;DHT22;36795;45.028;38.968;2024-03-17T08:29:55;13.30;67.20
49385;DHT22;36795;45.028;38.968;2024-03-17T08:32:41;13.30;67.20
49385;DHT22;36795;45.028;38.968;2024-03-17T08:35:27;13.60;67.20
49385;DHT22;36795;45.028;38.968;2024-03-17T08:38:13;13.80;66.40
49385;DHT22;36795;45.028;38.968;2024-03-17T08:41:05;13.90;66.00
49385;DHT22;36795;45.028;38.968;2024-03-17T08:43:52;14.10;65.70
49385;DHT22;36795;45.028;38.968;2024-03-17T08:46:38;14.40;64.90
49385;DHT22;36795;45.028;38.968;2024-03-17T08:49:24;15.60;61.90
49385;DHT22;36795;45.028;38.968;2024-03-17T08:52:11;16.10;60.30
49385;DHT22;36795;45.028;38.968;2024-03-17T08:54:58;16.60;59.20
49385;DHT22;36795;45.028;38.968;2024-03-17T08:57:44;17.10;56.50
49385;DHT22;36795;45.028;38.968;2024-03-17T09:00:30;17.50;55.50
49385;DHT22;36795;45.028;38.968;2024-03-17T09:03:18;17.50;55.00
49385;DHT22;36795;45.028;38.968;2024-03-17T09:06:04;17.20;55.50
49385;DHT22;36795;45.028;38.968;2024-03-17T09:08:51;16.80;56.40
49385;DHT22;36795;45.028;38.968;2024-03-17T09:11:37;16.90;56.60
49385;DHT22;36795;45.028;38.968;2024-03-17T09:14:23;17.00;56.20
49385;DHT22;36795;45.028;38.968;2024-03-17T09:17:09;16.80;56.40
49385;DHT22;36795;45.028;38.968;2024-03-17T09:19:55;16.30;57.30
49385;DHT22;36795;45.028;38.968;2024-03-17T09:22:41;15.90;58.20
49385;DHT22;36795;45.028;38.968;2024-03-17T09:25:27;15.70;59.00
49385;DHT22;36795;45.028;38.968;2024-03-17T09:28:13;15.90;58.90
49385;DHT22;36795;45.028;38.968;2024-03-17T09:31:00;16.90;57.70
49385;DHT22;36795;45.028;38.968;2024-03-17T09:33:46;18.60;54.30
49385;DHT22;36795;45.028;38.968;2024-03-17T09:36:32;19.70;52.20
49385;DHT22;36795;45.028;38.968;2024-03-17T09:39:18;21.20;48.80
49385;DHT22;36795;45.028;38.968;2024-03-17T09:42:05;21.80;46.60
49385;DHT22;36795;45.028;38.968;2024-03-17T09:44:53;21.80;46.20
49385;DHT22;36795;45.028;38.968;2024-03-17T09:47:42;22.20;46.20
49385;DHT22;36795;45.028;38.968;2024-03-17T09:50:28;22.50;44.80
49385;DHT22;36795;45.028;38.968;2024-03-17T09:53:16;22.00;45.10
49385;DHT22;36795;45.028;38.968;2024-03-17T09:56:11;22.00;45.40
49385;DHT22;36795;45.028;38.968;2024-03-17T09:58:58;22.00;44.80
49385;DHT22;36795;45.028;38.968;2024-03-17T10:01:45;22.00;45.10
49385;DHT22;36795;45.028;38.968;2024-03-17T10:04:34;21.80;44.90
49385;DHT22;36795;45.028;38.968;2024-03-17T10:07:37;21.30;45.80
49385;DHT22;36795;45.028;38.968;2024-03-17T10:10:24;21.40;46.10
49385;DHT22;36795;45.028;38.968;2024-03-17T10:13:12;21.70;45.80
49385;DHT22;36795;45.028;38.968;2024-03-17T10:15:58;22.30;44.70
49385;DHT22;36795;45.028;38.968;2024-03-17T10:18:44;22.90;43.70
49385;DHT22;36795;45.028;38.968;2024-03-17T10:21:30;23.60;42.90
49385;DHT22;36795;45.028;38.968;2024-03-17T10:24:24;24.10;41.90
49385;DHT22;36795;45.028;38.968;2024-03-17T10:27:11;24.40;41.20
49385;DHT22;36795;45.028;38.968;2024-03-17T10:29:57;24.50;40.00
49385;DHT22;36795;45.028;38.968;2024-03-17T10:32:44;24.80;39.50
49385;DHT22;36795;45.028;38.968;2024-03-17T10:35:34;25.10;38.90
49385;DHT22;36795;45.028;38.968;2024-03-17T10:38:21;24.00;39.40
49385;DHT22;36795;45.028;38.968;2024-03-17T10:41:09;22.30;41.80
49385;DHT22;36795;45.028;38.968;2024-03-17T10:43:55;21.20;43.80
49385;DHT22;36795;45.028;38.968;2024-03-17T10:46:42;20.90;44.80
49385;DHT22;36795;45.028;38.968;2024-03-17T10:49:31;20.70;44.60
49385;DHT22;36795;45.028;38.968;2024-03-17T10:52:18;20.30;45.40
49385;DHT22;36795;45.028;38.968;2024-03-17T10:55:08;19.90;46.60
49385;DHT22;36795;45.028;38.968;2024-03-17T10:57:59;19.60;47.30
49385;DHT22;36795;45.028;38.968;2024-03-17T11:00:49;19.50;47.90
49385;DHT22;36795;45.028;38.968;2024-03-17T11:03:36;19.60;47.50
49385;DHT22;36795;45.028;38.968;2024-03-17T11:06:22;19.10;48.00
49385;DHT22;36795;45.028;38.968;2024-03-17T11:09:13;18.50;48.70
49385;DHT22;36795;45.028;38.968;2024-03-17T11:12:01;18.10;49.90
49385;DHT22;36795;45.028;38.968;2024-03-17T11:14:47;17.70;51.00
49385;DHT22;36795;45.028;38.968;2024-03-17T11:17:33;17.40;52.40
49385;DHT22;36795;45.028;38.968;2024-03-17T11:20:26;17.20;52.40
49385;DHT22;36795;45.028;38.968;2024-03-17T11:23:26;17.30;52.70
49385;DHT22;36795;45.028;38.968;2024-03-17T11:26:27;17.30;52.80
49385;DHT22;36795;45.028;38.968;2024-03-17T11:29:27;17.40;52.70
49385;DHT22;36795;45.028;38.968;2024-03-17T11:32:25;17.60;52.50
49385;DHT22;36795;45.028;38.968;2024-03-17T11:35:14;18.10;51.90
49385;DHT22;36795;45.028;38.968;2024-03-17T11:38:00;18.40;51.10
49385;DHT22;36795;45.028;38.968;2024-03-17T11:40:46;18.30;51.00
49385;DHT22;36795;45.028;38.968;2024-03-17T11:43:32;18.10;51.30
49385;DHT22;36795;45.028;38.968;2024-03-17T11:46:20;17.80;51.60
49385;DHT22;36795;45.028;38.968;2024-03-17T11:49:06;17.50;52.30
49385;DHT22;36795;45.028;38.968;2024-03-17T11:51:54;17.30;52.70
49385;DHT22;36795;45.028;38.968;2024-03-17T11:54:45;17.20;52.60
49385;DHT22;36795;45.028;38.968;2024-03-17T11:57:32;17.20;52.70
49385;DHT22;36795;45.028;38.968;2024-03-17T12:00:22;17.30;52.30
49385;DHT22;36795;45.028;38.968;2024-03-17T12:03:10;17.50;51.80
49385;DHT22;36795;45.028;38.968;2024-03-17T12:05:56;17.50;51.60
49385;DHT22;36795;45.028;38.968;2024-03-17T12:08:43;17.90;51.50
49385;DHT22;36795;45.028;38.968;2024-03-17T12:11:30;18.80;49.50
49385;DHT22;36795;45.028;38.968;2024-03-17T12:14:21;18.80;48.60
49385;DHT22;36795;45.028;38.968;2024-03-17T12:17:09;18.50;48.80
49385;DHT22;36795;45.028;38.968;2024-03-17T12:19:56;18.20;49.60
49385;DHT22;36795;45.028;38.968;2024-03-17T12:22:42;18.00;50.20
49385;DHT22;36795;45.028;38.968;2024-03-17T12:25:28;18.00;50.60
49385;DHT22;36795;45.028;38.968;2024-03-17T12:28:16;17.90;50.70
49385;DHT22;36795;45.028;38.968;2024-03-17T12:31:03;17.90;51.00
49385;DHT22;36795;45.028;38.968;2024-03-17T12:33:49;17.80;50.80
49385;DHT22;36795;45.028;38.968;2024-03-17T12:36:35;17.60;51.00
49385;DHT22;36795;45.028;38.968;2024-03-17T12:39:29;17.60;51.30
49385;DHT22;36795;45.028;38.968;2024-03-17T12:42:22;17.50;51.20
49385;DHT22;36795;45.028;38.968;2024-03-17T12:45:09;17.30;51.20
49385;DHT22;36795;45.028;38.968;2024-03-17T12:47:56;17.10;51.70
49385;DHT22;36795;45.028;38.968;2024-03-17T12:50:45;16.90;51.90
49385;DHT22;36795;45.028;38.968;2024-03-17T12:53:32;16.80;52.10
49385;DHT22;36795;45.028;38.968;2024-03-17T12:56:24;16.70;52.30
49385;DHT22;36795;45.028;38.968;2024-03-17T12:59:39;16.90;52.50
49385;DHT22;36795;45.028;38.968;2024-03-17T13:02:44;17.20;51.90
49385;DHT22;36795;45.028;38.968;2024-03-17T13:05:35;17.10;52.00
49385;DHT22;36795;45.028;38.968;2024-03-17T13:08:21;17.10;52.20
49385;DHT22;36795;45.028;38.968;2024-03-17T13:11:09;16.90;51.90
49385;DHT22;36795;45.028;38.968;2024-03-17T13:13:55;16.70;52.20
49385;DHT22;36795;45.028;38.968;2024-03-17T13:16:41;16.50;52.50
49385;DHT22;36795;45.028;38.968;2024-03-17T13:19:27;16.40;53.00
49385;DHT22;36795;45.028;38.968;2024-03-17T13:22:14;16.20;53.30
49385;DHT22;36795;45.028;38.968;2024-03-17T13:25:00;16.10;53.50
49385;DHT22;36795;45.028;38.968;2024-03-17T13:27:47;16.10;53.80
49385;DHT22;36795;45.028;38.968;2024-03-17T13:30:33;15.90;53.70
49385;DHT22;36795;45.028;38.968;2024-03-17T13:33:22;15.80;53.80
49385;DHT22;36795;45.028;38.968;2024-03-17T13:36:09;15.60;55.20
49385;DHT22;36795;45.028;38.968;2024-03-17T13:38:55;15.30;56.20
49385;DHT22;36795;45.028;38.968;2024-03-17T13:41:41;15.20;57.30
49385;DHT22;36795;45.028;38.968;2024-03-17T13:44:27;15.20;57.80
49385;DHT22;36795;45.028;38.968;2024-03-17T13:47:14;15.20;58.70
49385;DHT22;36795;45.028;38.968;2024-03-17T13:50:01;15.00;59.30
49385;DHT22;36795;45.028;38.968;2024-03-17T13:52:46;14.80;59.60
49385;DHT22;36795;45.028;38.968;2024-03-17T13:55:34;14.60;60.90
49385;DHT22;36795;45.028;38.968;2024-03-17T13:58:20;14.40;62.10
49385;DHT22;36795;45.028;38.968;2024-03-17T14:01:08;14.20;63.40
49385;DHT22;36795;45.028;38.968;2024-03-17T14:03:54;14.00;63.60
49385;DHT22;36795;45.028;38.968;2024-03-17T14:06:44;14.00;63.80
49385;DHT22;36795;45.028;38.968;2024-03-17T14:09:30;14.00;64.50
49385;DHT22;36795;45.028;38.968;2024-03-17T14:12:17;13.90;64.10
49385;DHT22;36795;45.028;38.968;2024-03-17T14:15:07;13.80;64.30
49385;DHT22;36795;45.028;38.968;2024-03-17T14:17:55;13.80;64.50
49385;DHT22;36795;45.028;38.968;2024-03-17T14:20:42;13.80;64.60
49385;DHT22;36795;45.028;38.968;2024-03-17T14:23:27;13.80;64.70
49385;DHT22;36795;45.028;38.968;2024-03-17T14:26:16;13.70;64.90
49385;DHT22;36795;45.028;38.968;2024-03-17T14:29:02;13.70;65.00
49385;DHT22;36795;45.028;38.968;2024-03-17T14:31:48;13.60;65.10
49385;DHT22;36795;45.028;38.968;2024-03-17T14:34:34;13.60;65.20
49385;DHT22;36795;45.028;38.968;2024-03-17T14:37:22;13.60;65.00
49385;DHT22;36795;45.028;38.968;2024-03-17T14:40:10;13.60;65.10
49385;DHT22;36795;45.028;38.968;2024-03-17T14:43:03;13.60;65.10
49385;DHT22;36795;45.028;38.968;2024-03-17T14:45:49;13.50;65.20
49385;DHT22;36795;45.028;38.968;2024-03-17T14:48:36;13.40;65.80
49385;DHT22;36795;45.028;38.968;2024-03-17T14:51:22;13.40;66.00
49385;DHT22;36795;45.028;38.968;2024-03-17T14:54:08;13.30;66.20
49385;DHT22;36795;45.028;38.968;2024-03-17T14:56:54;13.30;66.50
49385;DHT22;36795;45.028;38.968;2024-03-17T14:59:40;13.30;66.60
49385;DHT22;36795;45.028;38.968;2024-03-17T15:02:27;13.40;66.70
49385;DHT22;36795;45.028;38.968;2024-03-17T15:05:14;13.40;66.80
49385;DHT22;36795;45.028;38.968;2024-03-17T15:08:00;13.40;67.10
49385;DHT22;36795;45.028;38.968;2024-03-17T15:10:48;13.40;67.10
49385;DHT22;36795;45.028;38.968;2024-03-17T15:13:34;13.40;67.20
49385;DHT22;36795;45.028;38.968;2024-03-17T15:16:21;13.40;67.20
49385;DHT22;36795;45.028;38.968;2024-03-17T15:19:09;13.40;67.80
49385;DHT22;36795;45.028;38.968;2024-03-17T15:21:58;13.40;67.30
49385;DHT22;36795;45.028;38.968;2024-03-17T15:24:43;13.30;67.50
49385;DHT22;36795;45.028;38.968;2024-03-17T15:27:29;13.30;67.60
49385;DHT22;36795;45.028;38.968;2024-03-17T15:30:17;13.30;68.10
49385;DHT22;36795;45.028;38.968;2024-03-17T15:33:11;13.20;69.10
49385;DHT22;36795;45.028;38.968;2024-03-17T15:35:56;13.10;70.10
49385;DHT22;36795;45.028;38.968;2024-03-17T15:38:43;13.00;70.40
49385;DHT22;36795;45.028;38.968;2024-03-17T15:41:29;13.00;70.80
49385;DHT22;36795;45.028;38.968;2024-03-17T15:44:15;13.00;71.50
49385;DHT22;36795;45.028;38.968;2024-03-17T15:47:01;13.00;71.60
49385;DHT22;36795;45.028;38.968;2024-03-17T15:49:49;13.00;71.60
49385;DHT22;36795;45.028;38.968;2024-03-17T15:52:35;13.00;71.80
49385;DHT22;36795;45.028;38.968;2024-03-17T15:55:23;13.00;71.90
49385;DHT22;36795;45.028;38.968;2024-03-17T15:58:09;13.00;72.20
49385;DHT22;36795;45.028;38.968;2024-03-17T16:00:55;13.00;72.70
49385;DHT22;36795;45.028;38.968;2024-03-17T16:03:44;12.90;72.60
49385;DHT22;36795;45.028;38.968;2024-03-17T16:06:31;12.90;72.70
49385;DHT22;36795;45.028;38.968;2024-03-17T16:09:17;12.90;73.00
49385;DHT22;36795;45.028;38.968;2024-03-17T16:12:05;12.80;73.30
49385;DHT22;36795;45.028;38.968;2024-03-17T16:14:51;12.80;73.60
49385;DHT22;36795;45.028;38.968;2024-03-17T16:17:39;12.80;74.00
49385;DHT22;36795;45.028;38.968;2024-03-17T16:20:53;12.80;74.20
49385;DHT22;36795;45.028;38.968;2024-03-17T16:23:48;12.70;74.40
49385;DHT22;36795;45.028;38.968;2024-03-17T16:26:35;12.60;74.80
49385;DHT22;36795;45.028;38.968;2024-03-17T16:29:26;12.60;75.80
49385;DHT22;36795;45.028;38.968;2024-03-17T16:32:13;12.50;75.40
49385;DHT22;36795;45.028;38.968;2024-03-17T16:35:00;12.50;75.70
49385;DHT22;36795;45.028;38.968;2024-03-17T16:37:47;12.50;75.80
49385;DHT22;36795;45.028;38.968;2024-03-17T16:40:34;12.40;75.80
49385;DHT22;36795;45.028;38.968;2024-03-17T16:43:37;12.40;75.90
49385;DHT22;36795;45.028;38.968;2024-03-17T16:49:34;12.40;75.90
49385;DHT22;36795;45.028;38.968;2024-03-17T16:52:24;12.40;76.00
49385;DHT22;36795;45.028;38.968;2024-03-17T16:55:12;12.40;75.70
49385;DHT22;36795;45.028;38.968;2024-03-17T16:57:59;12.40;75.50
49385;DHT22;36795;45.028;38.968;2024-03-17T17:00:45;12.40;75.30
49385;DHT22;36795;45.028;38.968;2024-03-17T17:03:34;12.40;75.10
49385;DHT22;36795;45.028;38.968;2024-03-17T17:06:21;12.40;74.90
49385;DHT22;36795;45.028;38.968;2024-03-17T17:09:07;12.40;74.50
49385;DHT22;36795;45.028;38.968;2024-03-17T17:11:56;12.30;74.30
49385;DHT22;36795;45.028;38.968;2024-03-17T17:14:43;12.30;74.60
49385;DHT22;36795;45.028;38.968;2024-03-17T17:17:29;12.20;74.60
49385;DHT22;36795;45.028;38.968;2024-03-17T17:20:15;12.20;74.70
49385;DHT22;36795;45.028;38.968;2024-03-17T17:23:01;12.20;74.80
49385;DHT22;36795;45.028;38.968;2024-03-17T17:25:51;12.10;74.80